Time;durP1;ratioP1;P1;durP2;ratioP2;P2;SDS_P1;SDS_P2;PMS_P1;PMS_P2;Temp;Humidity;BMP_temperature;BMP_pressure;BME280_temperature;BME280_humidity;BME280_pressure;Samples;Min_cycle;Max_cycle;Signal;HPM_P1;HPM_P2
2022/10/12 00:00:00;;;;;;;6.95;4.50;;;;;;;;;;5011877;28;20026;-81
2022/10/12 00:02:26;;;;;;;7.75;4.25;;;;;;;;;;5012028;28;20496;-81
2022/10/12 00:04:51;;;;;;;8.52;4.30;;;;;;;;;;5015330;28;20038;-81
2022/10/12 00:07:16;;;;;;;7.40;4.40;;;;;;;;;;5016940;28;20030;-81
2022/10/12 00:09:42;;;;;;;9.13;4.25;;;;;;;;;;5016809;28;20025;-81
2022/10/12 00:12:07;;;;;;;8.00;4.55;;;;;;;;;;5017384;28;20034;-81
2022/10/12 00:14:36;;;;;;;5.97;3.95;;;;;;;;;;5016945;28;20034;-81
2022/10/12 00:17:02;;;;;;;5.65;3.60;;;;;;;;;;4999177;28;20034;-81
2022/10/12 00:19:27;;;;;;;6.45;3.90;;;;;;;;;;5015741;28;20037;-81
2022/10/12 00:21:52;;;;;;;5.80;4.03;;;;;;;;;;5015859;28;20030;-81
2022/10/12 00:24:18;;;;;;;4.90;3.47;;;;;;;;;;5016043;28;20476;-81
2022/10/12 00:26:43;;;;;;;7.57;4.10;;;;;;;;;;4999022;28;20080;-80
2022/10/12 00:29:09;;;;;;;8.02;4.28;;;;;;;;;;4998978;28;20026;-80
2022/10/12 00:31:34;;;;;;;7.65;3.70;;;;;;;;;;4999253;28;20042;-81
2022/10/12 00:34:00;;;;;;;4.72;3.65;;;;;;;;;;5015666;28;20033;-81
2022/10/12 00:36:32;;;;;;;6.13;3.75;;;;;;;;;;5017020;28;20030;-81
2022/10/12 00:38:58;;;;;;;4.22;3.33;;;;;;;;;;5015249;28;20476;-80
2022/10/12 00:41:27;;;;;;;6.05;3.35;;;;;;;;;;5016546;28;20100;-80
2022/10/12 00:43:53;;;;;;;6.78;3.60;;;;;;;;;;5016434;28;20034;-80
2022/10/12 00:46:27;;;;;;;7.03;3.30;;;;;;;;;;5015188;28;20029;-80
2022/10/12 00:49:03;;;;;;;5.32;3.33;;;;;;;;;;5016473;28;20033;-81
2022/10/12 00:51:28;;;;;;;8.75;3.20;;;;;;;;;;5014732;28;20048;-81
2022/10/12 00:53:57;;;;;;;4.65;2.97;;;;;;;;;;5016167;28;20109;-82
2022/10/12 00:56:24;;;;;;;7.68;2.95;;;;;;;;;;4998476;28;20025;-82
2022/10/12 00:58:50;;;;;;;5.45;3.40;;;;;;;;;;4998442;28;20026;-81
2022/10/12 01:01:16;;;;;;;5.43;3.05;;;;;;;;;;5015211;28;20038;-81
2022/10/12 01:03:41;;;;;;;7.60;2.97;;;;;;;;;;5014547;28;20042;-82
2022/10/12 01:06:07;;;;;;;4.00;2.90;;;;;;;;;;5016229;28;20618;-81
2022/10/12 01:08:33;;;;;;;6.63;3.10;;;;;;;;;;5015015;28;20465;-82
2022/10/12 01:10:58;;;;;;;4.55;2.97;;;;;;;;;;5014824;28;20041;-82
2022/10/12 01:13:24;;;;;;;5.82;3.00;;;;;;;;;;4998197;28;20029;-81
2022/10/12 01:16:21;;;;;;;5.32;2.75;;;;;;;;;;5014057;28;20053;-81
2022/10/12 01:19:05;;;;;;;4.82;3.13;;;;;;;;;;4991151;28;20484;-81
2022/10/12 01:21:34;;;;;;;4.88;2.90;;;;;;;;;;5015873;28;20040;-82
2022/10/12 01:24:26;;;;;;;5.13;2.88;;;;;;;;;;5014367;28;20037;-81
2022/10/12 01:27:25;;;;;;;5.88;3.10;;;;;;;;;;5014547;28;20108;-81
2022/10/12 01:30:07;;;;;;;6.50;2.80;;;;;;;;;;5014075;28;20111;-81
2022/10/12 01:32:50;;;;;;;6.32;2.67;;;;;;;;;;4998162;28;20041;-80
2022/10/12 01:35:24;;;;;;;3.35;2.15;;;;;;;;;;5015640;28;20381;-81
2022/10/12 01:38:08;;;;;;;4.55;2.60;;;;;;;;;;5014432;28;20057;-81
2022/10/12 01:40:41;;;;;;;4.32;2.40;;;;;;;;;;5015502;28;20049;-81
2022/10/12 01:43:07;;;;;;;3.38;2.42;;;;;;;;;;4997574;28;20030;-81
2022/10/12 01:45:32;;;;;;;4.05;2.45;;;;;;;;;;4997884;28;20021;-81
2022/10/12 01:47:58;;;;;;;3.63;2.83;;;;;;;;;;5015461;28;20034;-80
2022/10/12 01:50:30;;;;;;;6.55;2.70;;;;;;;;;;4997355;28;20115;-81
2022/10/12 01:53:21;;;;;;;4.57;2.30;;;;;;;;;;4997395;28;20485;-82
2022/10/12 01:56:03;;;;;;;4.57;2.60;;;;;;;;;;5015016;28;20059;-81
2022/10/12 01:58:44;;;;;;;5.15;2.40;;;;;;;;;;5014948;28;20051;-81
2022/10/12 02:01:15;;;;;;;3.28;2.33;;;;;;;;;;5014935;28;20030;-81
2022/10/12 02:04:01;;;;;;;6.13;2.30;;;;;;;;;;5013600;28;20080;-81
2022/10/12 02:06:32;;;;;;;5.03;2.38;;;;;;;;;;5013506;28;20042;-81
2022/10/12 02:09:03;;;;;;;5.65;2.50;;;;;;;;;;5013866;28;20048;-81
2022/10/12 02:11:29;;;;;;;8.40;2.38;;;;;;;;;;5013929;28;20461;-81
2022/10/12 02:14:04;;;;;;;4.38;2.40;;;;;;;;;;4997040;28;20038;-81
2022/10/12 02:16:51;;;;;;;7.85;2.28;;;;;;;;;;5013463;28;20100;-81
2022/10/12 02:19:20;;;;;;;3.65;2.25;;;;;;;;;;4996965;28;20079;-82
2022/10/12 02:21:46;;;;;;;4.93;2.10;;;;;;;;;;5014572;28;20087;-81
2022/10/12 02:24:12;;;;;;;13.25;2.40;;;;;;;;;;5014427;28;20476;-81
2022/10/12 02:26:41;;;;;;;2.88;2.30;;;;;;;;;;5013870;28;20061;-81
2022/10/12 02:29:10;;;;;;;4.53;2.20;;;;;;;;;;5013406;28;20101;-81
2022/10/12 02:31:57;;;;;;;3.00;2.22;;;;;;;;;;5013066;28;20045;-81
2022/10/12 02:34:48;;;;;;;5.10;2.40;;;;;;;;;;5014883;28;20099;-80
2022/10/12 02:37:35;;;;;;;4.82;2.28;;;;;;;;;;5013042;28;20026;-81
2022/10/12 02:40:19;;;;;;;5.50;2.45;;;;;;;;;;5013036;28;20118;-81
2022/10/12 02:42:49;;;;;;;2.45;1.88;;;;;;;;;;5012869;28;20030;-80
2022/10/12 02:45:16;;;;;;;6.55;2.30;;;;;;;;;;5014401;28;20037;-81
2022/10/12 02:47:42;;;;;;;4.00;2.00;;;;;;;;;;5013387;28;20070;-81
2022/10/12 02:50:08;;;;;;;5.22;1.88;;;;;;;;;;5012642;28;20046;-81
2022/10/12 02:52:34;;;;;;;3.97;2.00;;;;;;;;;;5012799;28;20034;-81
2022/10/12 02:55:00;;;;;;;5.32;2.30;;;;;;;;;;5012788;28;20041;-80
2022/10/12 02:57:25;;;;;;;5.60;2.10;;;;;;;;;;5012721;28;20113;-80
2022/10/12 02:59:51;;;;;;;5.70;2.40;;;;;;;;;;4996335;28;20037;-80
2022/10/12 03:02:16;;;;;;;8.38;2.58;;;;;;;;;;5012685;28;20038;-81
2022/10/12 03:04:42;;;;;;;4.22;1.88;;;;;;;;;;5013844;28;20536;-80
2022/10/12 03:07:07;;;;;;;3.55;1.90;;;;;;;;;;5013909;28;20385;-81
2022/10/12 03:09:32;;;;;;;3.70;1.77;;;;;;;;;;5013945;28;20172;-81
2022/10/12 03:11:58;;;;;;;4.80;2.28;;;;;;;;;;5013933;28;20370;-81
2022/10/12 03:14:25;;;;;;;3.08;1.85;;;;;;;;;;5013667;28;20112;-81
2022/10/12 03:16:51;;;;;;;4.65;2.22;;;;;;;;;;5013895;28;20033;-81
2022/10/12 03:19:16;;;;;;;4.60;1.98;;;;;;;;;;4995955;28;20381;-82
2022/10/12 03:21:41;;;;;;;4.57;1.90;;;;;;;;;;5013891;28;20469;-81
2022/10/12 03:24:07;;;;;;;4.55;2.13;;;;;;;;;;5012319;28;20105;-81
2022/10/12 03:26:33;;;;;;;3.92;1.80;;;;;;;;;;5013493;28;20033;-81
2022/10/12 03:28:58;;;;;;;4.55;1.90;;;;;;;;;;4996486;28;20033;-82
2022/10/12 03:31:23;;;;;;;3.63;2.00;;;;;;;;;;5012352;28;20481;-81
2022/10/12 03:33:49;;;;;;;4.30;2.45;;;;;;;;;;5012219;28;20366;-82
2022/10/12 03:36:14;;;;;;;6.78;2.00;;;;;;;;;;4995990;28;20539;-81
2022/10/12 03:38:39;;;;;;;3.47;1.83;;;;;;;;;;5013727;28;20488;-81
2022/10/12 03:41:05;;;;;;;3.63;1.70;;;;;;;;;;5013217;28;20033;-81
2022/10/12 03:43:31;;;;;;;4.32;2.10;;;;;;;;;;5013477;28;20037;-81
2022/10/12 03:45:56;;;;;;;4.10;1.90;;;;;;;;;;5012120;28;20037;-82
2022/10/12 03:48:21;;;;;;;3.83;1.83;;;;;;;;;;5013675;28;20029;-81
2022/10/12 03:50:49;;;;;;;4.35;1.77;;;;;;;;;;5011811;28;20144;-82
2022/10/12 03:53:14;;;;;;;3.42;1.83;;;;;;;;;;4995927;28;20036;-81
2022/10/12 03:55:40;;;;;;;5.15;1.90;;;;;;;;;;5012344;28;20536;-82
2022/10/12 03:58:05;;;;;;;3.80;1.95;;;;;;;;;;5012109;28;20038;-81
2022/10/12 04:00:31;;;;;;;3.80;1.90;;;;;;;;;;4996448;28;20030;-82
2022/10/12 04:02:56;;;;;;;5.07;1.90;;;;;;;;;;5012054;28;20473;-81
2022/10/12 04:05:22;;;;;;;2.67;1.70;;;;;;;;;;5013713;28;20473;-82
2022/10/12 04:07:47;;;;;;;5.72;2.30;;;;;;;;;;5013198;28;20139;-82
2022/10/12 04:10:13;;;;;;;3.85;1.70;;;;;;;;;;5013688;28;20060;-82
2022/10/12 04:12:38;;;;;;;4.78;2.10;;;;;;;;;;5013432;28;20026;-82
2022/10/12 04:15:04;;;;;;;3.70;1.73;;;;;;;;;;5012174;28;20061;-82
2022/10/12 04:17:29;;;;;;;3.97;1.90;;;;;;;;;;5011635;28;20393;-82
2022/10/12 04:19:55;;;;;;;3.97;1.90;;;;;;;;;;5012223;28;20064;-82
2022/10/12 04:22:20;;;;;;;3.70;1.95;;;;;;;;;;5011739;28;20092;-82
2022/10/12 04:24:45;;;;;;;4.53;1.70;;;;;;;;;;5011689;28;20041;-82
2022/10/12 04:27:11;;;;;;;4.07;1.70;;;;;;;;;;5013216;28;20494;-82
2022/10/12 04:29:36;;;;;;;4.85;2.20;;;;;;;;;;5012135;28;20033;-81
2022/10/12 04:32:02;;;;;;;8.32;1.80;;;;;;;;;;4995555;28;20038;-82
2022/10/12 04:34:27;;;;;;;3.28;1.80;;;;;;;;;;5011899;28;20034;-82
2022/10/12 04:36:53;;;;;;;8.18;1.60;;;;;;;;;;5013334;28;20148;-81
2022/10/12 04:39:18;;;;;;;3.13;1.70;;;;;;;;;;4995768;28;20102;-81
2022/10/12 04:41:43;;;;;;;5.00;2.03;;;;;;;;;;5013114;28;20033;-81
2022/10/12 04:44:09;;;;;;;5.50;2.53;;;;;;;;;;5011690;28;20164;-80
2022/10/12 04:46:34;;;;;;;9.82;2.83;;;;;;;;;;5011793;28;20041;-81
2022/10/12 04:48:59;;;;;;;11.45;3.00;;;;;;;;;;5012998;28;20036;-82
2022/10/12 04:51:25;;;;;;;13.98;3.17;;;;;;;;;;5014541;28;20061;-82
2022/10/12 04:53:51;;;;;;;13.18;3.28;;;;;;;;;;5015671;28;20034;-81
2022/10/12 04:56:16;;;;;;;14.38;3.05;;;;;;;;;;5015283;28;20029;-82
2022/10/12 04:58:42;;;;;;;17.00;4.10;;;;;;;;;;5016456;28;20037;-83
2022/10/12 05:01:07;;;;;;;25.83;5.07;;;;;;;;;;5015247;28;20037;-82
2022/10/12 05:03:33;;;;;;;21.58;4.47;;;;;;;;;;5015651;28;20481;-81
2022/10/12 05:05:58;;;;;;;19.13;4.88;;;;;;;;;;5015177;28;20088;-81
2022/10/12 05:08:24;;;;;;;24.52;5.03;;;;;;;;;;5015610;28;20022;-80
2022/10/12 05:10:49;;;;;;;13.18;3.95;;;;;;;;;;5016518;28;20037;-81
2022/10/12 05:13:15;;;;;;;28.02;4.45;;;;;;;;;;5017866;28;20030;-80
2022/10/12 05:15:41;;;;;;;21.80;4.90;;;;;;;;;;5016696;28;20030;-80
2022/10/12 05:18:06;;;;;;;18.13;4.70;;;;;;;;;;5016299;28;20037;-81
2022/10/12 05:20:32;;;;;;;20.75;4.65;;;;;;;;;;5017058;28;20034;-81
2022/10/12 05:22:57;;;;;;;17.58;4.60;;;;;;;;;;5015794;28;20084;-80
2022/10/12 05:25:23;;;;;;;18.98;3.72;;;;;;;;;;5016244;28;20030;-81
2022/10/12 05:27:48;;;;;;;15.05;3.55;;;;;;;;;;5017714;28;20180;-80
2022/10/12 05:30:14;;;;;;;13.02;3.90;;;;;;;;;;5014965;28;20034;-81
2022/10/12 05:32:39;;;;;;;8.10;3.25;;;;;;;;;;5014661;28;20040;-81
2022/10/12 05:35:05;;;;;;;15.82;3.75;;;;;;;;;;4998160;28;20036;-80
2022/10/12 05:37:32;;;;;;;12.25;3.33;;;;;;;;;;4998197;28;20076;-81
2022/10/12 05:39:57;;;;;;;9.13;3.35;;;;;;;;;;5014423;28;20028;-82
2022/10/12 05:42:23;;;;;;;8.52;2.92;;;;;;;;;;5015458;28;20030;-81
2022/10/12 05:44:48;;;;;;;16.60;3.22;;;;;;;;;;5014566;28;20041;-81
2022/10/12 05:47:13;;;;;;;11.65;3.13;;;;;;;;;;5016239;28;20058;-81
2022/10/12 05:49:39;;;;;;;9.18;3.50;;;;;;;;;;5034082;28;20087;-79
2022/10/12 05:52:04;;;;;;;12.32;3.63;;;;;;;;;;5033687;28;20531;-82
2022/10/12 05:54:29;;;;;;;10.88;3.50;;;;;;;;;;5034093;28;20025;-82
2022/10/12 05:56:55;;;;;;;8.73;2.90;;;;;;;;;;5035114;28;20025;-82
2022/10/12 05:59:20;;;;;;;8.20;2.85;;;;;;;;;;5033941;28;20083;-81
2022/10/12 06:01:46;;;;;;;9.40;3.33;;;;;;;;;;5027708;28;20470;-82
2022/10/12 06:04:11;;;;;;;6.35;2.70;;;;;;;;;;5000134;28;20038;-82
2022/10/12 06:06:37;;;;;;;12.65;3.05;;;;;;;;;;5015546;28;20030;-81
2022/10/12 06:09:02;;;;;;;9.10;3.22;;;;;;;;;;4997542;28;20030;-80
2022/10/12 06:11:28;;;;;;;7.70;2.67;;;;;;;;;;4981194;28;20400;-82
2022/10/12 06:13:53;;;;;;;8.65;3.00;;;;;;;;;;5015649;28;20092;-81
2022/10/12 06:16:19;;;;;;;8.80;2.85;;;;;;;;;;5015260;28;20388;-81
2022/10/12 06:18:44;;;;;;;7.25;2.50;;;;;;;;;;5014927;28;20117;-81
2022/10/12 06:21:09;;;;;;;8.13;2.42;;;;;;;;;;5013993;28;20543;-81
2022/10/12 06:23:35;;;;;;;7.00;2.88;;;;;;;;;;4981144;28;20030;-81
2022/10/12 06:26:01;;;;;;;7.90;2.80;;;;;;;;;;5013999;28;20112;-81
2022/10/12 06:28:26;;;;;;;6.35;2.90;;;;;;;;;;4997339;28;20508;-81
2022/10/12 06:30:53;;;;;;;8.95;2.90;;;;;;;;;;5013662;28;20042;-81
2022/10/12 06:33:18;;;;;;;9.18;2.63;;;;;;;;;;5013539;28;20084;-80
2022/10/12 06:35:44;;;;;;;9.45;2.63;;;;;;;;;;5013466;28;20030;-81
2022/10/12 06:38:09;;;;;;;6.45;2.97;;;;;;;;;;5013474;28;20030;-80
2022/10/12 06:40:35;;;;;;;9.43;2.60;;;;;;;;;;5014538;28;20037;-80
2022/10/12 06:43:01;;;;;;;8.43;2.58;;;;;;;;;;5013703;28;20472;-80
2022/10/12 06:45:28;;;;;;;6.63;2.63;;;;;;;;;;4997076;28;20034;-80
2022/10/12 06:47:54;;;;;;;6.50;2.50;;;;;;;;;;5013193;28;20103;-81
2022/10/12 06:50:19;;;;;;;5.15;2.17;;;;;;;;;;4996518;28;20085;-81
2022/10/12 06:52:46;;;;;;;4.15;2.55;;;;;;;;;;5013456;28;20532;-80
2022/10/12 06:55:11;;;;;;;6.57;2.53;;;;;;;;;;5013064;28;20037;-80
2022/10/12 06:57:36;;;;;;;7.13;2.63;;;;;;;;;;5013303;28;20365;-80
2022/10/12 07:00:04;;;;;;;6.35;3.58;;;;;;;;;;5013016;28;20048;-80
2022/10/12 07:02:29;;;;;;;6.05;2.65;;;;;;;;;;5013048;28;20045;-81
2022/10/12 07:04:55;;;;;;;7.55;2.65;;;;;;;;;;5013201;28;20034;-80
2022/10/12 07:07:20;;;;;;;6.78;2.60;;;;;;;;;;5012863;28;20057;-80
2022/10/12 07:09:45;;;;;;;6.85;2.90;;;;;;;;;;5013931;28;20057;-80
2022/10/12 07:12:11;;;;;;;7.15;2.45;;;;;;;;;;5014425;28;20072;-80
2022/10/12 07:14:36;;;;;;;4.95;2.72;;;;;;;;;;4979944;28;20040;-80
2022/10/12 07:17:01;;;;;;;5.35;2.53;;;;;;;;;;5014478;28;20041;-80
2022/10/12 07:19:27;;;;;;;6.03;2.85;;;;;;;;;;5012689;28;20038;-80
2022/10/12 07:21:52;;;;;;;6.85;2.92;;;;;;;;;;5012964;28;20040;-80
2022/10/12 07:24:18;;;;;;;6.57;2.72;;;;;;;;;;4996302;28;20065;-81
2022/10/12 07:26:43;;;;;;;6.78;2.58;;;;;;;;;;4996263;28;20026;-81
2022/10/12 07:29:08;;;;;;;4.47;2.70;;;;;;;;;;5014116;28;20446;-80
2022/10/12 07:31:34;;;;;;;4.78;2.95;;;;;;;;;;5012491;28;20091;-78
2022/10/12 07:33:59;;;;;;;8.05;2.63;;;;;;;;;;4995978;28;20026;-80
2022/10/12 07:36:25;;;;;;;12.73;3.17;;;;;;;;;;4996070;28;20026;-80
2022/10/12 07:38:50;;;;;;;6.20;2.70;;;;;;;;;;5012385;28;20037;-80
2022/10/12 07:41:16;;;;;;;6.25;2.92;;;;;;;;;;5012376;28;20168;-81
2022/10/12 07:43:42;;;;;;;5.38;2.33;;;;;;;;;;5013333;28;20034;-82
2022/10/12 07:46:07;;;;;;;9.85;2.97;;;;;;;;;;5013477;28;20036;-80
2022/10/12 07:48:33;;;;;;;8.75;2.85;;;;;;;;;;4996147;28;20034;-81
2022/10/12 07:51:07;;;;;;;9.40;3.05;;;;;;;;;;5012645;28;20088;-81
2022/10/12 07:53:33;;;;;;;10.57;3.42;;;;;;;;;;5012898;28;20036;-81
2022/10/12 07:56:00;;;;;;;9.20;2.92;;;;;;;;;;4996027;28;20034;-81
2022/10/12 07:58:26;;;;;;;16.15;3.40;;;;;;;;;;5013392;28;20041;-80
2022/10/12 08:00:51;;;;;;;9.07;3.15;;;;;;;;;;5015263;28;20046;-81
2022/10/12 08:03:16;;;;;;;8.80;3.28;;;;;;;;;;5012251;28;20062;-81
2022/10/12 08:05:42;;;;;;;7.53;2.83;;;;;;;;;;4995986;28;20034;-81
2022/10/12 08:08:07;;;;;;;8.88;2.70;;;;;;;;;;5013453;28;20041;-82
2022/10/12 08:10:34;;;;;;;13.25;3.10;;;;;;;;;;4991548;28;20103;-80
2022/10/12 08:12:59;;;;;;;10.27;3.70;;;;;;;;;;5045294;28;20171;-80
2022/10/12 08:15:24;;;;;;;13.32;3.70;;;;;;;;;;5015912;28;20504;-80
2022/10/12 08:17:50;;;;;;;22.50;4.15;;;;;;;;;;5031395;28;20041;-80
2022/10/12 08:20:15;;;;;;;14.90;4.22;;;;;;;;;;5043340;28;20033;-81
2022/10/12 08:22:41;;;;;;;15.93;3.65;;;;;;;;;;5053236;28;20403;-81
2022/10/12 08:25:07;;;;;;;11.20;3.90;;;;;;;;;;5054225;28;20071;-80
2022/10/12 08:27:32;;;;;;;13.20;3.92;;;;;;;;;;5056331;28;20163;-81
2022/10/12 08:29:57;;;;;;;14.52;3.65;;;;;;;;;;5057077;28;20146;-81
2022/10/12 08:32:24;;;;;;;12.27;3.83;;;;;;;;;;5070892;28;20037;-82
2022/10/12 08:34:49;;;;;;;11.75;4.25;;;;;;;;;;5035356;28;20030;-82
2022/10/12 08:37:14;;;;;;;14.30;4.18;;;;;;;;;;5036917;28;20047;-81
2022/10/12 08:39:40;;;;;;;10.35;3.38;;;;;;;;;;5036374;28;20033;-82
2022/10/12 08:42:20;;;;;;;11.43;3.33;;;;;;;;;;5055567;28;20079;-83
2022/10/12 08:45:12;;;;;;;14.40;4.13;;;;;;;;;;5056534;28;20061;-82
2022/10/12 08:47:45;;;;;;;18.30;3.95;;;;;;;;;;5055611;28;20480;-82
2022/10/12 08:50:23;;;;;;;7.50;3.15;;;;;;;;;;5054939;28;20495;-82
2022/10/12 08:52:57;;;;;;;14.65;4.13;;;;;;;;;;5038392;28;20123;-82
2022/10/12 08:55:22;;;;;;;19.45;3.95;;;;;;;;;;5065815;28;20025;-82
2022/10/12 08:57:47;;;;;;;11.55;3.70;;;;;;;;;;5036287;28;20395;-83
2022/10/12 09:00:16;;;;;;;8.55;3.50;;;;;;;;;;5036262;28;20056;-81
2022/10/12 09:02:48;;;;;;;15.25;4.10;;;;;;;;;;5018481;28;20403;-81
2022/10/12 09:05:22;;;;;;;14.82;3.97;;;;;;;;;;5036251;28;20105;-81
2022/10/12 09:07:55;;;;;;;9.63;3.40;;;;;;;;;;5034863;28;20107;-82
2022/10/12 09:10:37;;;;;;;13.27;3.20;;;;;;;;;;5031603;28;20469;-82
2022/10/12 09:13:33;;;;;;;8.50;3.20;;;;;;;;;;5014920;28;20357;-81
2022/10/12 09:16:04;;;;;;;13.52;4.05;;;;;;;;;;5011426;28;20057;-81
2022/10/12 09:18:42;;;;;;;10.80;3.22;;;;;;;;;;5014749;28;20021;-81
2022/10/12 09:21:12;;;;;;;10.75;3.78;;;;;;;;;;5014955;28;20199;-80
2022/10/12 09:23:39;;;;;;;8.35;3.10;;;;;;;;;;5015162;28;20580;-81
2022/10/12 09:26:16;;;;;;;11.75;3.55;;;;;;;;;;5014807;28;20033;-81
2022/10/12 09:28:49;;;;;;;12.10;3.75;;;;;;;;;;5014947;28;20026;-81
2022/10/12 09:31:30;;;;;;;10.52;3.42;;;;;;;;;;5026945;28;20033;-80
2022/10/12 09:34:00;;;;;;;10.40;3.25;;;;;;;;;;5034261;28;20171;-80
2022/10/12 09:36:30;;;;;;;9.88;3.30;;;;;;;;;;5049224;28;20036;-80
2022/10/12 09:38:57;;;;;;;11.15;3.13;;;;;;;;;;5054531;28;20613;-81
2022/10/12 09:41:34;;;;;;;14.77;3.55;;;;;;;;;;5054193;28;20075;-81
2022/10/12 09:44:01;;;;;;;17.33;3.65;;;;;;;;;;5054376;28;20399;-83
2022/10/12 09:46:50;;;;;;;17.77;4.15;;;;;;;;;;5047352;28;20028;-82
2022/10/12 09:49:16;;;;;;;16.95;4.32;;;;;;;;;;5034321;28;20021;-80
2022/10/12 09:51:42;;;;;;;14.73;4.07;;;;;;;;;;5050199;28;20045;-82
2022/10/12 09:54:17;;;;;;;16.58;4.22;;;;;;;;;;5031409;28;20392;-80
2022/10/12 09:56:46;;;;;;;14.75;3.78;;;;;;;;;;5048144;28;20037;-82
2022/10/12 09:59:35;;;;;;;18.05;3.90;;;;;;;;;;5054055;28;20025;-81
2022/10/12 10:02:14;;;;;;;14.48;3.63;;;;;;;;;;5055338;28;20135;-81
2022/10/12 10:04:41;;;;;;;13.63;4.07;;;;;;;;;;5054350;28;20025;-82
2022/10/12 10:07:24;;;;;;;17.65;3.50;;;;;;;;;;5031139;28;20028;-81
2022/10/12 10:10:09;;;;;;;12.38;3.85;;;;;;;;;;5014083;28;20022;-80
2022/10/12 10:12:40;;;;;;;11.60;3.65;;;;;;;;;;5033969;28;20484;-81
2022/10/12 10:15:18;;;;;;;17.98;3.83;;;;;;;;;;5035837;28;20435;-81
2022/10/12 10:17:48;;;;;;;17.42;3.47;;;;;;;;;;5019999;28;20065;-81
2022/10/12 10:20:25;;;;;;;21.50;4.25;;;;;;;;;;5036709;28;20108;-81
2022/10/12 10:22:50;;;;;;;18.35;3.90;;;;;;;;;;5036305;28;20017;-81
2022/10/12 10:25:20;;;;;;;16.35;3.40;;;;;;;;;;5019736;28;20052;-81
2022/10/12 10:27:45;;;;;;;25.17;3.45;;;;;;;;;;5038025;28;20056;-81
2022/10/12 10:30:14;;;;;;;14.90;4.13;;;;;;;;;;5036726;28;20033;-79
2022/10/12 10:32:39;;;;;;;15.23;4.00;;;;;;;;;;5040394;28;20029;-82
2022/10/12 10:35:25;;;;;;;29.67;5.35;;;;;;;;;;5046820;28;20036;-84
2022/10/12 10:37:54;;;;;;;15.10;3.30;;;;;;;;;;5065894;28;20052;-84
2022/10/12 10:40:25;;;;;;;18.95;3.88;;;;;;;;;;5054129;28;20120;-84
2022/10/12 10:42:53;;;;;;;26.92;3.60;;;;;;;;;;5035412;28;20055;-84
2022/10/12 10:45:43;;;;;;;21.48;4.00;;;;;;;;;;5017740;28;20392;-84
2022/10/12 10:48:10;;;;;;;16.27;4.03;;;;;;;;;;5019940;28;20037;-85
2022/10/12 10:50:39;;;;;;;15.60;3.47;;;;;;;;;;5031931;28;20049;-84
2022/10/12 10:53:15;;;;;;;14.85;4.38;;;;;;;;;;5000378;28;20056;-83
2022/10/12 10:55:40;;;;;;;23.10;4.03;;;;;;;;;;5020728;28;20029;-84
2022/10/12 10:58:31;;;;;;;12.68;3.67;;;;;;;;;;5032907;28;20472;-82
2022/10/12 11:01:00;;;;;;;18.50;4.07;;;;;;;;;;5028085;28;20060;-82
2022/10/12 11:03:56;;;;;;;11.40;3.80;;;;;;;;;;5032693;28;20025;-82
2022/10/12 11:06:36;;;;;;;20.98;3.83;;;;;;;;;;5036870;28;20104;-82
2022/10/12 11:09:06;;;;;;;16.58;4.22;;;;;;;;;;5035967;28;20364;-82
2022/10/12 11:11:34;;;;;;;16.65;4.47;;;;;;;;;;5052136;28;20125;-81
2022/10/12 11:14:18;;;;;;;23.60;4.55;;;;;;;;;;5028536;28;20029;-85
2022/10/12 11:16:49;;;;;;;21.70;4.38;;;;;;;;;;5021412;28;20021;-82
2022/10/12 11:19:45;;;;;;;26.17;4.78;;;;;;;;;;5052549;28;20040;-82
2022/10/12 11:22:42;;;;;;;16.90;5.25;;;;;;;;;;5036110;28;20483;-83
2022/10/12 11:25:19;;;;;;;21.15;5.68;;;;;;;;;;5045243;28;20112;-83
2022/10/12 11:27:44;;;;;;;22.92;5.82;;;;;;;;;;5041788;28;20055;-81
2022/10/12 11:30:18;;;;;;;18.77;5.63;;;;;;;;;;5028179;28;20026;-82
2022/10/12 11:32:50;;;;;;;25.50;5.57;;;;;;;;;;5017021;28;20108;-82
2022/10/12 11:35:27;;;;;;;21.65;5.82;;;;;;;;;;5016902;28;20029;-82
2022/10/12 11:38:01;;;;;;;17.50;5.47;;;;;;;;;;4997920;28;20034;-82
2022/10/12 11:40:30;;;;;;;21.60;5.07;;;;;;;;;;4997216;28;20062;-82
2022/10/12 11:42:59;;;;;;;13.60;5.28;;;;;;;;;;5013067;28;20116;-81
2022/10/12 11:45:27;;;;;;;12.65;5.38;;;;;;;;;;5015086;28;20025;-82
2022/10/12 11:47:56;;;;;;;20.67;5.25;;;;;;;;;;5015804;28;20032;-82
2022/10/12 11:50:29;;;;;;;15.05;4.80;;;;;;;;;;5016078;28;20481;-82
2022/10/12 11:52:56;;;;;;;14.93;4.90;;;;;;;;;;5016127;28;20045;-82
2022/10/12 11:55:49;;;;;;;14.38;4.38;;;;;;;;;;5016609;28;20125;-84
2022/10/12 11:58:21;;;;;;;12.43;4.78;;;;;;;;;;5014620;28;20476;-82
2022/10/12 12:01:01;;;;;;;19.75;5.28;;;;;;;;;;5001463;28;20022;-81
2022/10/12 12:04:03;;;;;;;17.80;4.60;;;;;;;;;;5022914;28;20472;-81
2022/10/12 12:06:28;;;;;;;27.13;4.53;;;;;;;;;;5016008;28;20405;-81
2022/10/12 12:08:57;;;;;;;21.05;4.72;;;;;;;;;;5030546;28;20112;-80
2022/10/12 12:11:28;;;;;;;15.77;4.25;;;;;;;;;;5037806;28;20120;-80
2022/10/12 12:14:24;;;;;;;16.13;4.25;;;;;;;;;;5031736;28;20018;-80
2022/10/12 12:17:08;;;;;;;15.45;4.45;;;;;;;;;;5029767;28;20085;-79
2022/10/12 12:19:35;;;;;;;;;;;;;;;;;;5019629;28;20052;-81
2022/10/12 12:22:27;;;;;;;13.02;4.65;;;;;;;;;;5035814;28;19987;-80
2022/10/12 12:25:07;;;;;;;12.55;4.05;;;;;;;;;;5037250;28;20052;-80
2022/10/12 12:27:50;;;;;;;16.55;4.68;;;;;;;;;;5037136;28;20021;-79
2022/10/12 12:30:23;;;;;;;15.35;4.05;;;;;;;;;;5035342;28;20022;-80
2022/10/12 12:32:53;;;;;;;11.55;4.10;;;;;;;;;;5036070;28;20124;-80
2022/10/12 12:35:23;;;;;;;16.60;4.07;;;;;;;;;;5035652;28;20033;-80
2022/10/12 12:38:16;;;;;;;10.65;3.97;;;;;;;;;;5036934;28;20029;-80
2022/10/12 12:40:53;;;;;;;15.32;3.88;;;;;;;;;;5019042;28;20025;-80
2022/10/12 12:43:41;;;;;;;16.73;4.20;;;;;;;;;;5035524;28;20025;-81
2022/10/12 12:46:09;;;;;;;10.23;3.75;;;;;;;;;;5031392;28;20037;-80
2022/10/12 12:48:38;;;;;;;16.15;3.72;;;;;;;;;;5037028;28;20171;-81
2022/10/12 12:51:35;;;;;;;15.48;3.20;;;;;;;;;;5036578;28;20116;-80
2022/10/12 12:54:15;;;;;;;12.15;3.80;;;;;;;;;;5027334;28;20522;-80
2022/10/12 12:56:44;;;;;;;14.05;4.03;;;;;;;;;;5036492;28;20090;-80
2022/10/12 12:59:34;;;;;;;10.82;3.42;;;;;;;;;;5036211;28;20495;-80
2022/10/12 13:02:37;;;;;;;12.10;3.40;;;;;;;;;;5037819;28;20033;-80
2022/10/12 13:05:14;;;;;;;12.32;3.00;;;;;;;;;;5035137;28;20029;-80
2022/10/12 13:07:52;;;;;;;14.52;2.90;;;;;;;;;;5034975;28;20071;-80
2022/10/12 13:10:45;;;;;;;8.20;3.22;;;;;;;;;;5017920;28;20021;-80
2022/10/12 13:13:26;;;;;;;6.93;3.33;;;;;;;;;;5034758;28;20025;-79
2022/10/12 13:16:17;;;;;;;12.55;2.95;;;;;;;;;;5023792;28;20022;-80
2022/10/12 13:18:55;;;;;;;10.50;3.20;;;;;;;;;;5014861;28;20384;-79
2022/10/12 13:21:23;;;;;;;9.98;3.50;;;;;;;;;;5015246;28;20491;-80
2022/10/12 13:23:52;;;;;;;7.50;3.25;;;;;;;;;;5015044;28;20052;-79
2022/10/12 13:26:24;;;;;;;9.50;3.00;;;;;;;;;;4998370;28;20084;-83
2022/10/12 13:28:49;;;;;;;13.75;3.38;;;;;;;;;;5014760;28;20018;-79
2022/10/12 13:31:24;;;;;;;9.45;3.30;;;;;;;;;;5015576;28;20033;-80
2022/10/12 13:33:56;;;;;;;11.48;3.20;;;;;;;;;;5015848;28;20030;-80
2022/10/12 13:36:30;;;;;;;15.20;3.20;;;;;;;;;;5015872;28;20032;-78
2022/10/12 13:38:58;;;;;;;11.50;2.95;;;;;;;;;;5014907;28;20117;-80
2022/10/12 13:41:25;;;;;;;10.90;3.20;;;;;;;;;;5014601;28;20141;-80
2022/10/12 13:43:59;;;;;;;5.70;2.65;;;;;;;;;;5015076;28;20021;-79
2022/10/12 13:46:47;;;;;;;10.68;3.03;;;;;;;;;;5014756;28;20026;-80
2022/10/12 13:49:19;;;;;;;6.90;2.58;;;;;;;;;;5014877;28;20026;-78
2022/10/12 13:51:51;;;;;;;7.70;3.20;;;;;;;;;;4998562;28;20100;-79
2022/10/12 13:54:54;;;;;;;8.48;3.03;;;;;;;;;;5015923;28;20045;-79
2022/10/12 13:57:41;;;;;;;7.40;2.95;;;;;;;;;;5015560;28;20061;-79
2022/10/12 14:00:16;;;;;;;11.90;2.85;;;;;;;;;;5015393;28;20080;-79
2022/10/12 14:03:02;;;;;;;9.00;2.85;;;;;;;;;;4998890;28;20112;-79
2022/10/12 14:05:31;;;;;;;12.85;3.13;;;;;;;;;;5014614;28;20121;-79
2022/10/12 14:08:11;;;;;;;8.20;3.03;;;;;;;;;;4998733;28;20030;-79
2022/10/12 14:10:37;;;;;;;9.05;3.00;;;;;;;;;;4999109;28;20030;-79
2022/10/12 14:13:03;;;;;;;9.77;3.60;;;;;;;;;;4998639;28;20042;-80
2022/10/12 14:15:39;;;;;;;7.50;2.88;;;;;;;;;;4981957;28;20121;-80
2022/10/12 14:18:29;;;;;;;7.50;2.75;;;;;;;;;;4982654;28;20432;-79
2022/10/12 14:21:04;;;;;;;7.90;3.45;;;;;;;;;;5014005;28;20030;-79
2022/10/12 14:23:29;;;;;;;10.10;3.35;;;;;;;;;;5013159;28;20030;-79
2022/10/12 14:25:55;;;;;;;5.82;3.10;;;;;;;;;;5014094;28;20052;-79
2022/10/12 14:28:34;;;;;;;7.93;3.55;;;;;;;;;;4996676;28;20032;-79
2022/10/12 14:30:59;;;;;;;9.93;3.15;;;;;;;;;;5013608;28;20092;-79
2022/10/12 14:33:25;;;;;;;9.23;3.53;;;;;;;;;;4997947;28;20030;-79
2022/10/12 14:36:13;;;;;;;7.55;3.17;;;;;;;;;;5016017;28;20064;-79
2022/10/12 14:38:51;;;;;;;10.90;2.83;;;;;;;;;;5014502;28;20026;-79
2022/10/12 14:41:37;;;;;;;6.50;2.78;;;;;;;;;;4997063;28;20026;-80
2022/10/12 14:44:10;;;;;;;8.43;3.08;;;;;;;;;;5014287;28;20022;-79
2022/10/12 14:46:50;;;;;;;8.20;2.70;;;;;;;;;;5013661;28;20041;-79
2022/10/12 14:49:19;;;;;;;5.57;2.97;;;;;;;;;;5014031;28;20028;-79
2022/10/12 14:51:45;;;;;;;6.72;3.22;;;;;;;;;;5013085;28;20141;-79
2022/10/12 14:54:11;;;;;;;7.40;3.20;;;;;;;;;;5013588;28;20428;-79
2022/10/12 14:56:37;;;;;;;9.55;2.75;;;;;;;;;;5031437;28;20080;-79
2022/10/12 14:59:02;;;;;;;7.90;2.97;;;;;;;;;;5012829;28;20030;-79